sensor_id;sensor_type;location;lat;lon;timestamp;temperature;humidity
28823;DHT22;15961;54.678;9.110;2022-08-24T00:00:53;19.00;99.90
28823;DHT22;15961;54.678;9.110;2022-08-24T00:03:19;19.00;99.90
28823;DHT22;15961;54.678;9.110;2022-08-24T00:05:45;19.00;99.90
28823;DHT22;15961;54.678;9.110;2022-08-24T00:08:12;19.10;99.90
28823;DHT22;15961;54.678;9.110;2022-08-24T00:10:37;19.00;99.90
28823;DHT22;15961;54.678;9.110;2022-08-24T00:13:04;19.00;99.90
28823;DHT22;15961;54.678;9.110;2022-08-24T00:15:29;19.00;99.90
28823;DHT22;15961;54.678;9.110;2022-08-24T00:17:55;19.00;99.90
28823;DHT22;15961;54.678;9.110;2022-08-24T00:20:21;19.10;99.90
28823;DHT22;15961;54.678;9.110;2022-08-24T00:22:46;19.10;99.90
28823;DHT22;15961;54.678;9.110;2022-08-24T00:25:12;19.10;99.90
28823;DHT22;15961;54.678;9.110;2022-08-24T00:27:40;19.10;99.90
28823;DHT22;15961;54.678;9.110;2022-08-24T00:30:08;19.10;99.90
28823;DHT22;15961;54.678;9.110;2022-08-24T00:32:35;19.00;99.90
28823;DHT22;15961;54.678;9.110;2022-08-24T00:35:03;19.10;99.90
28823;DHT22;15961;54.678;9.110;2022-08-24T00:37:29;19.00;99.90
28823;DHT22;15961;54.678;9.110;2022-08-24T00:39:56;19.00;99.90
28823;DHT22;15961;54.678;9.110;2022-08-24T00:42:22;19.10;99.90
28823;DHT22;15961;54.678;9.110;2022-08-24T00:44:48;19.10;99.90
28823;DHT22;15961;54.678;9.110;2022-08-24T00:47:26;19.10;99.90
28823;DHT22;15961;54.678;9.110;2022-08-24T00:49:57;19.10;99.90
28823;DHT22;15961;54.678;9.110;2022-08-24T00:52:28;19.10;99.90
28823;DHT22;15961;54.678;9.110;2022-08-24T00:55:11;19.10;99.90
28823;DHT22;15961;54.678;9.110;2022-08-24T00:57:43;19.10;99.90
28823;DHT22;15961;54.678;9.110;2022-08-24T01:00:18;19.10;99.90
28823;DHT22;15961;54.678;9.110;2022-08-24T01:02:46;19.10;99.90
28823;DHT22;15961;54.678;9.110;2022-08-24T01:05:15;19.10;99.90
28823;DHT22;15961;54.678;9.110;2022-08-24T01:07:43;19.10;99.90
28823;DHT22;15961;54.678;9.110;2022-08-24T01:10:13;19.10;99.90
28823;DHT22;15961;54.678;9.110;2022-08-24T01:12:42;19.00;99.90
28823;DHT22;15961;54.678;9.110;2022-08-24T01:15:10;19.10;99.90
28823;DHT22;15961;54.678;9.110;2022-08-24T01:17:36;19.00;99.90
28823;DHT22;15961;54.678;9.110;2022-08-24T01:20:22;19.00;99.90
28823;DHT22;15961;54.678;9.110;2022-08-24T01:25:35;19.00;99.90
28823;DHT22;15961;54.678;9.110;2022-08-24T01:28:09;19.00;99.90
28823;DHT22;15961;54.678;9.110;2022-08-24T01:30:36;19.00;99.90
28823;DHT22;15961;54.678;9.110;2022-08-24T01:33:05;19.00;99.90
28823;DHT22;15961;54.678;9.110;2022-08-24T01:35:31;19.00;99.90
28823;DHT22;15961;54.678;9.110;2022-08-24T01:38:00;18.90;99.90
28823;DHT22;15961;54.678;9.110;2022-08-24T01:40:32;18.80;99.90
28823;DHT22;15961;54.678;9.110;2022-08-24T01:42:59;18.80;99.90
28823;DHT22;15961;54.678;9.110;2022-08-24T01:45:25;18.70;99.90
28823;DHT22;15961;54.678;9.110;2022-08-24T01:47:51;18.60;99.90
28823;DHT22;15961;54.678;9.110;2022-08-24T01:50:16;18.50;99.90
28823;DHT22;15961;54.678;9.110;2022-08-24T01:52:43;18.50;99.90
28823;DHT22;15961;54.678;9.110;2022-08-24T01:55:12;18.40;99.90
28823;DHT22;15961;54.678;9.110;2022-08-24T01:57:38;18.30;99.90
28823;DHT22;15961;54.678;9.110;2022-08-24T02:00:07;18.20;99.90
28823;DHT22;15961;54.678;9.110;2022-08-24T02:02:33;18.10;99.90
28823;DHT22;15961;54.678;9.110;2022-08-24T02:04:58;18.10;99.90
28823;DHT22;15961;54.678;9.110;2022-08-24T02:07:24;18.00;99.90
28823;DHT22;15961;54.678;9.110;2022-08-24T02:09:51;18.00;99.90
28823;DHT22;15961;54.678;9.110;2022-08-24T02:12:18;17.90;99.90
28823;DHT22;15961;54.678;9.110;2022-08-24T02:14:44;17.80;99.90
28823;DHT22;15961;54.678;9.110;2022-08-24T02:17:10;17.80;99.90
28823;DHT22;15961;54.678;9.110;2022-08-24T02:19:36;17.70;99.90
28823;DHT22;15961;54.678;9.110;2022-08-24T02:22:03;17.60;99.90
28823;DHT22;15961;54.678;9.110;2022-08-24T02:24:31;17.60;99.90
28823;DHT22;15961;54.678;9.110;2022-08-24T02:26:57;17.50;99.90
28823;DHT22;15961;54.678;9.110;2022-08-24T02:29:23;17.50;99.90
28823;DHT22;15961;54.678;9.110;2022-08-24T02:31:49;17.40;99.90
28823;DHT22;15961;54.678;9.110;2022-08-24T02:34:15;17.30;99.90
28823;DHT22;15961;54.678;9.110;2022-08-24T02:36:40;17.30;99.90
28823;DHT22;15961;54.678;9.110;2022-08-24T02:39:07;17.30;99.90
28823;DHT22;15961;54.678;9.110;2022-08-24T02:41:33;17.20;99.90
28823;DHT22;15961;54.678;9.110;2022-08-24T02:43:59;17.20;99.90
28823;DHT22;15961;54.678;9.110;2022-08-24T02:46:28;17.20;99.90
28823;DHT22;15961;54.678;9.110;2022-08-24T02:48:54;17.20;99.90
28823;DHT22;15961;54.678;9.110;2022-08-24T02:51:26;17.10;99.90
28823;DHT22;15961;54.678;9.110;2022-08-24T02:53:52;17.20;99.90
28823;DHT22;15961;54.678;9.110;2022-08-24T02:56:18;17.10;99.90
28823;DHT22;15961;54.678;9.110;2022-08-24T02:58:45;17.10;99.90
28823;DHT22;15961;54.678;9.110;2022-08-24T03:01:12;17.00;99.90
28823;DHT22;15961;54.678;9.110;2022-08-24T03:03:38;17.00;99.90
28823;DHT22;15961;54.678;9.110;2022-08-24T03:06:05;17.00;99.90
28823;DHT22;15961;54.678;9.110;2022-08-24T03:08:31;16.90;99.90
28823;DHT22;15961;54.678;9.110;2022-08-24T03:10:56;16.80;99.90
28823;DHT22;15961;54.678;9.110;2022-08-24T03:13:28;16.90;99.90
28823;DHT22;15961;54.678;9.110;2022-08-24T03:15:55;16.80;99.90
28823;DHT22;15961;54.678;9.110;2022-08-24T03:18:22;16.80;99.90
28823;DHT22;15961;54.678;9.110;2022-08-24T03:20:50;16.80;99.90
28823;DHT22;15961;54.678;9.110;2022-08-24T03:23:16;16.70;99.90
28823;DHT22;15961;54.678;9.110;2022-08-24T03:25:42;16.60;99.90
28823;DHT22;15961;54.678;9.110;2022-08-24T03:28:07;16.60;99.90
28823;DHT22;15961;54.678;9.110;2022-08-24T03:30:33;16.60;99.90
28823;DHT22;15961;54.678;9.110;2022-08-24T03:32:59;16.60;99.90
28823;DHT22;15961;54.678;9.110;2022-08-24T03:35:24;16.60;99.90
28823;DHT22;15961;54.678;9.110;2022-08-24T03:37:50;16.70;99.90
28823;DHT22;15961;54.678;9.110;2022-08-24T03:40:16;16.70;99.90
28823;DHT22;15961;54.678;9.110;2022-08-24T03:42:44;16.80;99.90
28823;DHT22;15961;54.678;9.110;2022-08-24T03:45:10;16.90;99.90
28823;DHT22;15961;54.678;9.110;2022-08-24T03:47:36;16.90;99.90
28823;DHT22;15961;54.678;9.110;2022-08-24T03:50:03;17.00;99.90
28823;DHT22;15961;54.678;9.110;2022-08-24T03:52:28;17.00;99.90
28823;DHT22;15961;54.678;9.110;2022-08-24T03:54:54;17.00;99.90
28823;DHT22;15961;54.678;9.110;2022-08-24T03:57:19;17.00;99.90
28823;DHT22;15961;54.678;9.110;2022-08-24T03:59:45;17.00;99.90
28823;DHT22;15961;54.678;9.110;2022-08-24T04:02:10;17.00;99.90
28823;DHT22;15961;54.678;9.110;2022-08-24T04:04:36;17.00;99.90
28823;DHT22;15961;54.678;9.110;2022-08-24T04:07:02;17.00;99.90
28823;DHT22;15961;54.678;9.110;2022-08-24T04:09:28;17.00;99.90
28823;DHT22;15961;54.678;9.110;2022-08-24T04:11:54;17.00;99.90
28823;DHT22;15961;54.678;9.110;2022-08-24T04:14:19;17.10;99.90
28823;DHT22;15961;54.678;9.110;2022-08-24T04:16:45;17.00;99.90
28823;DHT22;15961;54.678;9.110;2022-08-24T04:19:12;17.00;99.90
28823;DHT22;15961;54.678;9.110;2022-08-24T04:21:38;17.00;99.90
28823;DHT22;15961;54.678;9.110;2022-08-24T04:24:06;17.00;99.90
28823;DHT22;15961;54.678;9.110;2022-08-24T04:26:32;16.90;99.90
28823;DHT22;15961;54.678;9.110;2022-08-24T04:28:58;17.00;99.90
28823;DHT22;15961;54.678;9.110;2022-08-24T04:31:25;17.00;99.90
28823;DHT22;15961;54.678;9.110;2022-08-24T04:33:51;16.90;99.90
28823;DHT22;15961;54.678;9.110;2022-08-24T04:36:18;17.10;99.90
28823;DHT22;15961;54.678;9.110;2022-08-24T04:38:45;17.10;99.90
28823;DHT22;15961;54.678;9.110;2022-08-24T04:41:12;17.10;99.90
28823;DHT22;15961;54.678;9.110;2022-08-24T04:43:38;17.10;99.90
28823;DHT22;15961;54.678;9.110;2022-08-24T04:46:07;17.10;99.90
28823;DHT22;15961;54.678;9.110;2022-08-24T04:48:34;17.20;99.90
28823;DHT22;15961;54.678;9.110;2022-08-24T04:51:01;17.20;99.90
28823;DHT22;15961;54.678;9.110;2022-08-24T04:53:27;17.20;99.90
28823;DHT22;15961;54.678;9.110;2022-08-24T04:55:53;17.20;99.90
28823;DHT22;15961;54.678;9.110;2022-08-24T04:58:18;17.20;99.90
28823;DHT22;15961;54.678;9.110;2022-08-24T05:00:45;17.20;99.90
28823;DHT22;15961;54.678;9.110;2022-08-24T05:03:10;17.20;99.90
28823;DHT22;15961;54.678;9.110;2022-08-24T05:05:44;17.20;99.90
28823;DHT22;15961;54.678;9.110;2022-08-24T05:08:11;17.20;99.90
28823;DHT22;15961;54.678;9.110;2022-08-24T05:10:43;17.10;99.90
28823;DHT22;15961;54.678;9.110;2022-08-24T05:13:10;17.20;99.90
28823;DHT22;15961;54.678;9.110;2022-08-24T05:15:40;17.10;99.90
28823;DHT22;15961;54.678;9.110;2022-08-24T05:18:06;17.10;99.90
28823;DHT22;15961;54.678;9.110;2022-08-24T05:20:32;17.00;99.90
28823;DHT22;15961;54.678;9.110;2022-08-24T05:22:58;17.10;99.90
28823;DHT22;15961;54.678;9.110;2022-08-24T05:25:24;17.10;99.90
28823;DHT22;15961;54.678;9.110;2022-08-24T05:27:49;17.10;99.90
28823;DHT22;15961;54.678;9.110;2022-08-24T05:30:15;17.20;99.90
28823;DHT22;15961;54.678;9.110;2022-08-24T05:32:41;17.20;99.90
28823;DHT22;15961;54.678;9.110;2022-08-24T05:35:07;17.20;99.90
28823;DHT22;15961;54.678;9.110;2022-08-24T05:37:37;17.20;99.90
28823;DHT22;15961;54.678;9.110;2022-08-24T05:40:09;17.30;99.90
28823;DHT22;15961;54.678;9.110;2022-08-24T05:42:35;17.40;99.90
28823;DHT22;15961;54.678;9.110;2022-08-24T05:45:01;17.50;99.90
28823;DHT22;15961;54.678;9.110;2022-08-24T05:47:27;17.50;99.90
28823;DHT22;15961;54.678;9.110;2022-08-24T05:49:52;17.60;99.90
28823;DHT22;15961;54.678;9.110;2022-08-24T05:52:19;17.70;99.90
28823;DHT22;15961;54.678;9.110;2022-08-24T05:54:54;17.80;99.90
28823;DHT22;15961;54.678;9.110;2022-08-24T05:57:20;17.90;99.90
28823;DHT22;15961;54.678;9.110;2022-08-24T05:59:46;18.00;99.90
28823;DHT22;15961;54.678;9.110;2022-08-24T06:02:12;18.10;99.90
28823;DHT22;15961;54.678;9.110;2022-08-24T06:04:38;18.30;99.90
28823;DHT22;15961;54.678;9.110;2022-08-24T06:07:04;18.40;99.90
28823;DHT22;15961;54.678;9.110;2022-08-24T06:09:30;18.60;99.90
28823;DHT22;15961;54.678;9.110;2022-08-24T06:11:56;18.80;99.90
28823;DHT22;15961;54.678;9.110;2022-08-24T06:14:23;19.00;99.90
28823;DHT22;15961;54.678;9.110;2022-08-24T06:16:49;19.20;99.90
28823;DHT22;15961;54.678;9.110;2022-08-24T06:19:17;19.40;99.90
28823;DHT22;15961;54.678;9.110;2022-08-24T06:21:45;19.50;99.90
28823;DHT22;15961;54.678;9.110;2022-08-24T06:24:11;19.70;99.90
28823;DHT22;15961;54.678;9.110;2022-08-24T06:26:37;19.80;99.90
28823;DHT22;15961;54.678;9.110;2022-08-24T06:29:21;19.90;99.90
28823;DHT22;15961;54.678;9.110;2022-08-24T06:31:48;19.90;99.90
28823;DHT22;15961;54.678;9.110;2022-08-24T06:34:16;19.90;99.90
28823;DHT22;15961;54.678;9.110;2022-08-24T06:36:42;19.90;99.90
28823;DHT22;15961;54.678;9.110;2022-08-24T06:39:08;19.90;99.90
28823;DHT22;15961;54.678;9.110;2022-08-24T06:41:35;20.00;99.90
28823;DHT22;15961;54.678;9.110;2022-08-24T06:44:01;19.90;99.90
28823;DHT22;15961;54.678;9.110;2022-08-24T06:46:26;19.80;99.90
28823;DHT22;15961;54.678;9.110;2022-08-24T06:48:53;19.80;99.90
28823;DHT22;15961;54.678;9.110;2022-08-24T06:51:20;20.00;99.90
28823;DHT22;15961;54.678;9.110;2022-08-24T06:53:47;20.10;99.90
28823;DHT22;15961;54.678;9.110;2022-08-24T06:56:13;20.40;99.90
28823;DHT22;15961;54.678;9.110;2022-08-24T06:58:39;20.70;99.90
28823;DHT22;15961;54.678;9.110;2022-08-24T07:01:16;21.00;99.90
28823;DHT22;15961;54.678;9.110;2022-08-24T07:03:43;21.20;99.90
28823;DHT22;15961;54.678;9.110;2022-08-24T07:06:09;21.40;99.90
28823;DHT22;15961;54.678;9.110;2022-08-24T07:08:37;21.40;99.90
28823;DHT22;15961;54.678;9.110;2022-08-24T07:11:03;21.60;99.90
28823;DHT22;15961;54.678;9.110;2022-08-24T07:13:30;21.70;99.90
28823;DHT22;15961;54.678;9.110;2022-08-24T07:15:57;21.90;99.90
28823;DHT22;15961;54.678;9.110;2022-08-24T07:18:23;22.00;99.90
28823;DHT22;15961;54.678;9.110;2022-08-24T07:20:49;22.00;99.90
28823;DHT22;15961;54.678;9.110;2022-08-24T07:23:16;22.20;99.90
28823;DHT22;15961;54.678;9.110;2022-08-24T07:25:43;22.30;99.90
28823;DHT22;15961;54.678;9.110;2022-08-24T07:28:10;22.50;99.90
28823;DHT22;15961;54.678;9.110;2022-08-24T07:30:37;22.70;99.90
28823;DHT22;15961;54.678;9.110;2022-08-24T07:33:02;22.70;99.90
28823;DHT22;15961;54.678;9.110;2022-08-24T07:35:30;22.80;99.90
28823;DHT22;15961;54.678;9.110;2022-08-24T07:37:57;23.10;99.90
28823;DHT22;15961;54.678;9.110;2022-08-24T07:40:24;23.10;99.90
28823;DHT22;15961;54.678;9.110;2022-08-24T07:42:52;23.20;99.90
28823;DHT22;15961;54.678;9.110;2022-08-24T07:45:19;23.40;99.90
28823;DHT22;15961;54.678;9.110;2022-08-24T07:47:45;23.60;99.90
28823;DHT22;15961;54.678;9.110;2022-08-24T07:50:11;23.80;99.90
28823;DHT22;15961;54.678;9.110;2022-08-24T07:52:37;24.00;99.90
28823;DHT22;15961;54.678;9.110;2022-08-24T07:55:04;24.00;99.90
28823;DHT22;15961;54.678;9.110;2022-08-24T07:57:30;24.00;99.90
28823;DHT22;15961;54.678;9.110;2022-08-24T07:59:58;24.30;99.90
28823;DHT22;15961;54.678;9.110;2022-08-24T08:02:24;24.40;99.90
28823;DHT22;15961;54.678;9.110;2022-08-24T08:04:50;24.50;99.90
28823;DHT22;15961;54.678;9.110;2022-08-24T08:07:16;24.60;99.90
28823;DHT22;15961;54.678;9.110;2022-08-24T08:09:41;24.60;99.90
28823;DHT22;15961;54.678;9.110;2022-08-24T08:12:07;24.70;99.90
28823;DHT22;15961;54.678;9.110;2022-08-24T08:14:34;24.80;99.90
28823;DHT22;15961;54.678;9.110;2022-08-24T08:17:00;24.80;99.90
28823;DHT22;15961;54.678;9.110;2022-08-24T08:19:27;24.90;99.90
28823;DHT22;15961;54.678;9.110;2022-08-24T08:21:53;25.00;99.90
28823;DHT22;15961;54.678;9.110;2022-08-24T08:24:38;25.10;99.90
28823;DHT22;15961;54.678;9.110;2022-08-24T08:27:05;25.10;99.90
28823;DHT22;15961;54.678;9.110;2022-08-24T08:29:32;25.30;99.90
28823;DHT22;15961;54.678;9.110;2022-08-24T08:31:58;25.50;99.90
28823;DHT22;15961;54.678;9.110;2022-08-24T08:34:25;25.60;99.90
28823;DHT22;15961;54.678;9.110;2022-08-24T08:36:51;25.70;99.90
28823;DHT22;15961;54.678;9.110;2022-08-24T08:39:18;25.60;99.90
28823;DHT22;15961;54.678;9.110;2022-08-24T09:04:15;26.60;99.90
28823;DHT22;15961;54.678;9.110;2022-08-24T09:06:46;26.90;99.90
28823;DHT22;15961;54.678;9.110;2022-08-24T09:12:02;27.10;99.90
28823;DHT22;15961;54.678;9.110;2022-08-24T09:14:41;27.30;99.90
28823;DHT22;15961;54.678;9.110;2022-08-24T09:22:38;27.50;99.90
28823;DHT22;15961;54.678;9.110;2022-08-24T09:25:35;27.70;99.90
28823;DHT22;15961;54.678;9.110;2022-08-24T09:31:09;27.80;99.90
28823;DHT22;15961;54.678;9.110;2022-08-24T09:34:01;27.90;99.90
28823;DHT22;15961;54.678;9.110;2022-08-24T09:39:34;28.20;99.90
28823;DHT22;15961;54.678;9.110;2022-08-24T09:53:53;29.10;99.90
28823;DHT22;15961;54.678;9.110;2022-08-24T10:05:02;29.40;99.90
28823;DHT22;15961;54.678;9.110;2022-08-24T10:13:31;30.00;99.90
28823;DHT22;15961;54.678;9.110;2022-08-24T10:19:28;30.20;99.90
28823;DHT22;15961;54.678;9.110;2022-08-24T10:22:20;30.20;99.90
28823;DHT22;15961;54.678;9.110;2022-08-24T10:25:16;30.40;99.90
28823;DHT22;15961;54.678;9.110;2022-08-24T10:31:07;30.90;99.90
28823;DHT22;15961;54.678;9.110;2022-08-24T10:33:50;31.10;99.90
28823;DHT22;15961;54.678;9.110;2022-08-24T10:36:40;31.40;99.90
28823;DHT22;15961;54.678;9.110;2022-08-24T10:42:34;31.50;99.90
28823;DHT22;15961;54.678;9.110;2022-08-24T10:51:28;31.70;99.90
28823;DHT22;15961;54.678;9.110;2022-08-24T10:54:00;32.00;99.90
28823;DHT22;15961;54.678;9.110;2022-08-24T10:59:27;32.20;99.90
28823;DHT22;15961;54.678;9.110;2022-08-24T11:02:06;32.00;99.50
28823;DHT22;15961;54.678;9.110;2022-08-24T11:04:33;31.60;99.30
28823;DHT22;15961;54.678;9.110;2022-08-24T11:07:07;31.00;99.90
28823;DHT22;15961;54.678;9.110;2022-08-24T11:09:57;30.90;99.80
28823;DHT22;15961;54.678;9.110;2022-08-24T11:12:33;30.60;99.90
28823;DHT22;15961;54.678;9.110;2022-08-24T11:18:12;31.00;99.90
28823;DHT22;15961;54.678;9.110;2022-08-24T11:20:43;31.20;99.90
28823;DHT22;15961;54.678;9.110;2022-08-24T11:23:21;31.60;99.80
28823;DHT22;15961;54.678;9.110;2022-08-24T11:30:57;32.10;97.10
28823;DHT22;15961;54.678;9.110;2022-08-24T11:33:57;32.20;99.20
28823;DHT22;15961;54.678;9.110;2022-08-24T11:36:28;32.30;98.00
28823;DHT22;15961;54.678;9.110;2022-08-24T11:39:26;32.60;99.20
28823;DHT22;15961;54.678;9.110;2022-08-24T11:41:55;32.60;97.20
28823;DHT22;15961;54.678;9.110;2022-08-24T11:44:47;32.60;97.10
28823;DHT22;15961;54.678;9.110;2022-08-24T11:50:08;32.70;96.00
28823;DHT22;15961;54.678;9.110;2022-08-24T12:00:57;33.80;96.20
28823;DHT22;15961;54.678;9.110;2022-08-24T12:12:04;34.60;91.80
28823;DHT22;15961;54.678;9.110;2022-08-24T12:17:48;35.00;91.70
28823;DHT22;15961;54.678;9.110;2022-08-24T12:20:36;34.60;85.30
28823;DHT22;15961;54.678;9.110;2022-08-24T12:23:30;34.90;91.00
28823;DHT22;15961;54.678;9.110;2022-08-24T12:26:02;35.20;86.10
28823;DHT22;15961;54.678;9.110;2022-08-24T12:28:39;35.30;87.30
28823;DHT22;15961;54.678;9.110;2022-08-24T12:31:15;35.50;86.50
28823;DHT22;15961;54.678;9.110;2022-08-24T12:33:46;35.80;83.20
28823;DHT22;15961;54.678;9.110;2022-08-24T12:36:24;35.60;84.10
28823;DHT22;15961;54.678;9.110;2022-08-24T12:39:05;35.70;85.60
28823;DHT22;15961;54.678;9.110;2022-08-24T12:44:52;36.60;82.00
28823;DHT22;15961;54.678;9.110;2022-08-24T12:50:25;36.80;77.70
28823;DHT22;15961;54.678;9.110;2022-08-24T12:53:10;36.90;75.80
28823;DHT22;15961;54.678;9.110;2022-08-24T12:56:03;36.70;73.80
28823;DHT22;15961;54.678;9.110;2022-08-24T13:01:39;36.80;73.80
28823;DHT22;15961;54.678;9.110;2022-08-24T13:04:17;36.10;70.10
28823;DHT22;15961;54.678;9.110;2022-08-24T13:07:26;36.00;71.60
28823;DHT22;15961;54.678;9.110;2022-08-24T13:17:47;36.70;72.20
28823;DHT22;15961;54.678;9.110;2022-08-24T13:20:21;36.70;73.30
28823;DHT22;15961;54.678;9.110;2022-08-24T13:25:58;37.00;74.00
28823;DHT22;15961;54.678;9.110;2022-08-24T13:42:09;37.30;71.90
28823;DHT22;15961;54.678;9.110;2022-08-24T13:44:51;37.70;72.70
28823;DHT22;15961;54.678;9.110;2022-08-24T13:47:29;37.80;73.90
28823;DHT22;15961;54.678;9.110;2022-08-24T14:04:15;37.70;75.40
28823;DHT22;15961;54.678;9.110;2022-08-24T14:21:07;37.10;76.40
28823;DHT22;15961;54.678;9.110;2022-08-24T14:23:56;36.80;76.80
28823;DHT22;15961;54.678;9.110;2022-08-24T14:29:30;37.10;75.80
28823;DHT22;15961;54.678;9.110;2022-08-24T14:34:34;36.80;75.30
28823;DHT22;15961;54.678;9.110;2022-08-24T14:37:07;36.70;78.40
28823;DHT22;15961;54.678;9.110;2022-08-24T14:40:00;36.60;77.20
28823;DHT22;15961;54.678;9.110;2022-08-24T14:42:53;36.60;76.10
28823;DHT22;15961;54.678;9.110;2022-08-24T15:10:26;36.40;76.40
28823;DHT22;15961;54.678;9.110;2022-08-24T15:13:01;36.30;75.90
28823;DHT22;15961;54.678;9.110;2022-08-24T15:15:40;36.30;75.20
28823;DHT22;15961;54.678;9.110;2022-08-24T15:26:13;36.00;77.60
28823;DHT22;15961;54.678;9.110;2022-08-24T15:28:48;35.80;76.80
28823;DHT22;15961;54.678;9.110;2022-08-24T15:31:19;35.90;76.70
28823;DHT22;15961;54.678;9.110;2022-08-24T15:33:57;35.60;77.50
28823;DHT22;15961;54.678;9.110;2022-08-24T15:36:23;35.70;78.30
28823;DHT22;15961;54.678;9.110;2022-08-24T15:38:50;35.80;78.20
28823;DHT22;15961;54.678;9.110;2022-08-24T15:43:52;35.20;77.60
28823;DHT22;15961;54.678;9.110;2022-08-24T15:46:26;35.40;78.60
28823;DHT22;15961;54.678;9.110;2022-08-24T15:48:57;35.20;78.20
28823;DHT22;15961;54.678;9.110;2022-08-24T15:51:52;35.30;79.20
28823;DHT22;15961;54.678;9.110;2022-08-24T15:56:53;35.00;79.60
28823;DHT22;15961;54.678;9.110;2022-08-24T16:05:23;34.50;79.60
28823;DHT22;15961;54.678;9.110;2022-08-24T16:13:29;34.60;81.30
28823;DHT22;15961;54.678;9.110;2022-08-24T16:16:06;34.40;80.40
28823;DHT22;15961;54.678;9.110;2022-08-24T16:18:52;34.30;81.00
28823;DHT22;15961;54.678;9.110;2022-08-24T16:32:14;34.00;81.10
28823;DHT22;15961;54.678;9.110;2022-08-24T16:34:42;33.80;82.20
28823;DHT22;15961;54.678;9.110;2022-08-24T16:37:08;33.60;82.60
28823;DHT22;15961;54.678;9.110;2022-08-24T16:39:33;33.50;82.30
28823;DHT22;15961;54.678;9.110;2022-08-24T16:42:02;33.40;82.50
28823;DHT22;15961;54.678;9.110;2022-08-24T16:44:32;33.10;82.80
28823;DHT22;15961;54.678;9.110;2022-08-24T16:46:59;33.20;83.80
28823;DHT22;15961;54.678;9.110;2022-08-24T16:49:24;33.10;84.50
28823;DHT22;15961;54.678;9.110;2022-08-24T16:51:50;32.90;84.40
28823;DHT22;15961;54.678;9.110;2022-08-24T16:54:16;32.60;84.70
28823;DHT22;15961;54.678;9.110;2022-08-24T16:56:41;32.50;85.50
28823;DHT22;15961;54.678;9.110;2022-08-24T16:59:11;32.20;86.40
28823;DHT22;15961;54.678;9.110;2022-08-24T17:01:38;31.80;87.20
28823;DHT22;15961;54.678;9.110;2022-08-24T17:04:04;31.60;87.30
28823;DHT22;15961;54.678;9.110;2022-08-24T17:06:30;31.40;87.90
28823;DHT22;15961;54.678;9.110;2022-08-24T17:08:57;31.40;88.50
28823;DHT22;15961;54.678;9.110;2022-08-24T17:11:22;31.30;88.70
28823;DHT22;15961;54.678;9.110;2022-08-24T17:13:51;31.10;89.60
28823;DHT22;15961;54.678;9.110;2022-08-24T17:16:18;31.00;90.20
28823;DHT22;15961;54.678;9.110;2022-08-24T17:18:44;30.30;90.40
28823;DHT22;15961;54.678;9.110;2022-08-24T17:21:10;29.60;91.70
28823;DHT22;15961;54.678;9.110;2022-08-24T17:23:36;28.80;92.90
28823;DHT22;15961;54.678;9.110;2022-08-24T17:26:06;28.10;94.40
28823;DHT22;15961;54.678;9.110;2022-08-24T17:28:39;27.50;95.90
28823;DHT22;15961;54.678;9.110;2022-08-24T17:31:07;27.00;97.30
28823;DHT22;15961;54.678;9.110;2022-08-24T17:33:33;26.50;99.10
28823;DHT22;15961;54.678;9.110;2022-08-24T17:35:59;26.20;99.90
28823;DHT22;15961;54.678;9.110;2022-08-24T17:38:24;25.80;99.90
28823;DHT22;15961;54.678;9.110;2022-08-24T17:40:50;25.60;99.90
28823;DHT22;15961;54.678;9.110;2022-08-24T17:43:16;25.30;99.90
28823;DHT22;15961;54.678;9.110;2022-08-24T17:45:42;25.10;99.90
28823;DHT22;15961;54.678;9.110;2022-08-24T17:48:18;24.90;99.90
28823;DHT22;15961;54.678;9.110;2022-08-24T17:50:45;24.70;99.90
28823;DHT22;15961;54.678;9.110;2022-08-24T17:53:10;24.60;99.90
28823;DHT22;15961;54.678;9.110;2022-08-24T17:55:36;24.50;99.90
28823;DHT22;15961;54.678;9.110;2022-08-24T17:58:01;24.40;99.90
28823;DHT22;15961;54.678;9.110;2022-08-24T18:00:27;24.20;99.90
28823;DHT22;15961;54.678;9.110;2022-08-24T18:02:53;24.00;99.90
28823;DHT22;15961;54.678;9.110;2022-08-24T18:05:19;23.90;99.90
28823;DHT22;15961;54.678;9.110;2022-08-24T18:07:51;23.70;99.90
28823;DHT22;15961;54.678;9.110;2022-08-24T18:10:20;23.60;99.90
28823;DHT22;15961;54.678;9.110;2022-08-24T18:12:46;23.50;99.90
28823;DHT22;15961;54.678;9.110;2022-08-24T18:15:12;23.30;99.90
28823;DHT22;15961;54.678;9.110;2022-08-24T18:17:41;23.20;99.90
28823;DHT22;15961;54.678;9.110;2022-08-24T18:20:08;23.10;99.90
28823;DHT22;15961;54.678;9.110;2022-08-24T18:22:35;23.00;99.90
28823;DHT22;15961;54.678;9.110;2022-08-24T18:25:01;22.90;99.90
28823;DHT22;15961;54.678;9.110;2022-08-24T18:27:29;22.80;99.90
28823;DHT22;15961;54.678;9.110;2022-08-24T18:30:04;22.60;99.90
28823;DHT22;15961;54.678;9.110;2022-08-24T18:32:30;22.50;99.90
28823;DHT22;15961;54.678;9.110;2022-08-24T18:34:56;22.30;99.90
28823;DHT22;15961;54.678;9.110;2022-08-24T18:37:21;22.30;99.90
28823;DHT22;15961;54.678;9.110;2022-08-24T18:39:48;22.20;99.90
28823;DHT22;15961;54.678;9.110;2022-08-24T18:42:14;22.00;99.90
28823;DHT22;15961;54.678;9.110;2022-08-24T18:44:40;21.90;99.90
28823;DHT22;15961;54.678;9.110;2022-08-24T18:47:06;21.80;99.90
28823;DHT22;15961;54.678;9.110;2022-08-24T18:49:32;21.70;99.90
28823;DHT22;15961;54.678;9.110;2022-08-24T18:51:59;21.60;99.90
28823;DHT22;15961;54.678;9.110;2022-08-24T18:54:35;21.50;99.90
28823;DHT22;15961;54.678;9.110;2022-08-24T18:57:02;21.50;99.90
28823;DHT22;15961;54.678;9.110;2022-08-24T18:59:28;21.40;99.90
28823;DHT22;15961;54.678;9.110;2022-08-24T19:01:55;21.30;99.90
28823;DHT22;15961;54.678;9.110;2022-08-24T19:04:44;21.20;99.90
28823;DHT22;15961;54.678;9.110;2022-08-24T19:07:10;21.10;99.90
28823;DHT22;15961;54.678;9.110;2022-08-24T19:09:36;21.00;99.90
28823;DHT22;15961;54.678;9.110;2022-08-24T19:12:05;21.00;99.90
28823;DHT22;15961;54.678;9.110;2022-08-24T19:14:32;20.90;99.90
28823;DHT22;15961;54.678;9.110;2022-08-24T19:16:58;20.80;99.90
28823;DHT22;15961;54.678;9.110;2022-08-24T19:19:23;20.70;99.90
28823;DHT22;15961;54.678;9.110;2022-08-24T19:21:49;20.70;99.90
28823;DHT22;15961;54.678;9.110;2022-08-24T19:24:18;20.70;99.90
28823;DHT22;15961;54.678;9.110;2022-08-24T19:26:45;20.60;99.90
28823;DHT22;15961;54.678;9.110;2022-08-24T19:29:10;20.60;99.90
28823;DHT22;15961;54.678;9.110;2022-08-24T19:31:36;20.50;99.90
28823;DHT22;15961;54.678;9.110;2022-08-24T19:34:02;20.40;99.90
28823;DHT22;15961;54.678;9.110;2022-08-24T19:36:28;20.40;99.90
28823;DHT22;15961;54.678;9.110;2022-08-24T19:38:55;20.40;99.90
28823;DHT22;15961;54.678;9.110;2022-08-24T19:41:21;20.30;99.90
28823;DHT22;15961;54.678;9.110;2022-08-24T19:43:50;20.30;99.90
28823;DHT22;15961;54.678;9.110;2022-08-24T19:46:34;20.20;99.90
28823;DHT22;15961;54.678;9.110;2022-08-24T19:49:00;20.20;99.90